Time;durP1;ratioP1;P1;durP2;ratioP2;P2;SDS_P1;SDS_P2;PMS_P1;PMS_P2;Temp;Humidity;BMP_temperature;BMP_pressure;BME280_temperature;BME280_humidity;BME280_pressure;Samples;Min_cycle;Max_cycle;Signal;HPM_P1;HPM_P2
2023/04/02 00:09:23;;;;;;;3.60;1.70;;;;;;;23.88;40.67;99518.38;20755008;28;20042;-72
2023/04/02 00:19:52;;;;;;;2.80;1.60;;;;;;;23.86;40.73;99554.19;20757471;28;20053;-73
2023/04/02 00:29:54;;;;;;;;;;;;;;;23.89;40.45;99620.56;20760738;28;20050;-72
2023/04/02 00:40:01;;;;;;;1.75;1.55;;;;;;;23.81;40.37;99589.53;20758817;28;20279;-72
2023/04/02 00:50:05;;;;;;;2.25;1.50;;;;;;;23.87;40.41;99611.69;20757531;28;20111;-71
2023/04/02 01:00:10;;;;;;;1.98;1.30;;;;;;;23.83;40.61;99612.38;20756017;28;20038;-72
2023/04/02 01:10:20;;;;;;;3.30;1.60;;;;;;;23.81;40.44;99594.28;20752952;28;20054;-72
2023/04/02 01:20:34;;;;;;;2.38;1.50;;;;;;;23.79;40.67;99686.00;20751015;28;20095;-73
2023/04/02 01:30:36;;;;;;;3.78;1.45;;;;;;;23.81;40.64;99737.56;20732728;28;20072;-74
2023/04/02 01:41:04;;;;;;;4.38;1.73;;;;;;;23.73;41.28;99785.91;20742791;28;20444;-73
2023/04/02 01:51:07;;;;;;;2.30;1.70;;;;;;;23.76;41.52;99793.59;20742357;28;20099;-71
2023/04/02 02:01:18;;;;;;;3.70;1.48;;;;;;;23.76;41.59;99798.38;20749217;28;20050;-73
2023/04/02 02:11:23;;;;;;;8.75;1.90;;;;;;;23.73;41.42;99815.78;20747657;28;20504;-73
2023/04/02 02:21:39;;;;;;;5.20;1.25;;;;;;;23.71;41.15;99860.81;20728566;28;20397;-72
2023/04/02 02:31:43;;;;;;;12.30;1.55;;;;;;;23.71;41.58;99863.59;20747424;28;20115;-73
2023/04/02 02:41:56;;;;;;;7.18;2.05;;;;;;;23.63;41.81;99844.81;20753653;28;20535;-74
2023/04/02 02:52:06;;;;;;;2.38;1.35;;;;;;;23.67;41.95;99889.72;20739948;28;20034;-72
2023/04/02 03:02:07;;;;;;;3.63;1.60;;;;;;;23.71;41.81;99992.09;20753544;28;20030;-74
2023/04/02 03:12:37;;;;;;;4.18;1.40;;;;;;;23.62;41.89;100033.09;20746736;28;20389;-72
2023/04/02 03:22:48;;;;;;;5.93;1.50;;;;;;;23.66;41.99;100073.22;20758527;28;20041;-72
2023/04/02 03:32:59;;;;;;;10.95;1.83;;;;;;;23.38;42.00;100061.38;20762066;28;20037;-72
2023/04/02 03:43:11;;;;;;;2.10;1.30;;;;;;;23.37;42.35;100075.63;20775781;28;20033;-73
2023/04/02 03:53:12;;;;;;;3.55;1.45;;;;;;;23.65;40.70;100154.56;20735368;28;20041;-72
2023/04/02 04:03:35;;;;;;;6.97;2.03;;;;;;;23.69;41.98;100184.34;20754074;28;20482;-71
2023/04/02 04:14:10;;;;;;;14.40;2.65;;;;;;;23.68;45.61;100193.00;20750422;28;20046;-73
2023/04/02 04:24:20;;;;;;;8.90;1.80;;;;;;;23.71;44.42;100231.50;20733576;28;20049;-74
2023/04/02 04:34:30;;;;;;;8.40;1.73;;;;;;;23.72;43.86;100267.47;20739309;28;20045;-73
2023/04/02 04:44:59;;;;;;;11.50;2.67;;;;;;;23.61;42.80;100282.00;20739627;28;20046;-72
2023/04/02 04:55:01;;;;;;;11.80;1.90;;;;;;;23.64;42.74;100292.50;20750171;28;20459;-72
2023/04/02 05:05:03;;;;;;;6.70;1.42;;;;;;;23.49;42.37;100274.16;20750663;28;20496;-74
2023/04/02 05:15:26;;;;;;;7.03;1.67;;;;;;;23.66;41.85;100333.00;20746494;28;20424;-73
2023/04/02 05:25:31;;;;;;;4.47;1.58;;;;;;;23.49;41.94;100316.03;20822077;28;20091;-73
2023/04/02 05:35:42;;;;;;;2.95;1.52;;;;;;;23.63;41.62;100355.94;20754793;28;20104;-72
2023/04/02 05:45:51;;;;;;;3.17;1.10;;;;;;;23.54;41.75;100371.78;20750191;28;20473;-72
2023/04/02 05:56:04;;;;;;;4.72;1.17;;;;;;;23.56;41.78;100403.84;20750230;28;20042;-73
2023/04/02 06:06:17;;;;;;;3.00;1.33;;;;;;;23.47;41.42;100432.81;20750261;28;20057;-72
2023/04/02 06:16:27;;;;;;;2.15;1.27;;;;;;;23.33;41.39;100400.13;20747401;28;20046;-73
2023/04/02 06:26:35;;;;;;;2.27;1.17;;;;;;;23.53;41.49;100453.91;20750387;28;20088;-72
2023/04/02 06:36:36;;;;;;;3.70;1.10;;;;;;;23.42;41.10;100463.63;20743707;28;20337;-72
2023/04/02 06:46:46;;;;;;;1.60;1.08;;;;;;;23.30;41.32;100448.22;20744835;28;20108;-73
2023/04/02 06:56:53;;;;;;;2.33;1.60;;;;;;;23.43;40.78;100479.25;20741893;28;20048;-72
2023/04/02 07:06:54;;;;;;;2.05;1.30;;;;;;;22.86;40.59;100400.47;20736642;28;20104;-74
2023/04/02 07:16:56;;;;;;;2.60;0.93;;;;;;;23.43;40.76;100501.59;20736848;28;20100;-73
2023/04/02 07:26:57;;;;;;;1.13;0.80;;;;;;;23.39;40.71;100517.31;20741895;28;20042;-73
2023/04/02 07:37:01;;;;;;;2.05;1.02;;;;;;;23.23;40.50;100528.75;20743569;28;20543;-73
2023/04/02 07:47:02;;;;;;;2.20;0.70;;;;;;;23.34;40.71;100565.69;20736350;28;20567;-73
2023/04/02 07:57:04;;;;;;;1.40;0.82;;;;;;;23.34;40.43;100574.88;20739960;28;20180;-74
2023/04/02 08:07:06;;;;;;;1.17;0.50;;;;;;;23.23;40.19;100565.03;20718413;28;20042;-73
2023/04/02 08:17:10;;;;;;;0.70;0.50;;;;;;;23.15;40.13;100565.75;20734504;28;20443;-73
2023/04/02 08:27:15;;;;;;;2.53;0.60;;;;;;;23.13;40.01;100604.28;20745946;28;20084;-73
2023/04/02 08:37:16;;;;;;;1.15;0.63;;;;;;;23.24;39.96;100644.84;20746235;28;20052;-73
2023/04/02 08:47:20;;;;;;;1.55;0.68;;;;;;;23.17;39.83;100641.63;20754297;28;20065;-72
2023/04/02 08:57:56;;;;;;;1.02;0.60;;;;;;;23.08;39.95;100676.91;20722743;28;20133;-71
2023/04/02 09:08:01;;;;;;;1.60;0.55;;;;;;;22.81;39.69;100656.06;20747134;28;20100;-73
2023/04/02 09:18:14;;;;;;;1.00;0.50;;;;;;;23.08;39.90;100727.16;20732880;28;20038;-72
2023/04/02 09:28:16;;;;;;;0.93;0.68;;;;;;;23.08;39.31;100760.66;20752522;28;20057;-71
2023/04/02 09:38:23;;;;;;;1.38;0.68;;;;;;;23.03;39.48;100767.13;20746192;28;20030;-73
2023/04/02 09:48:29;;;;;;;0.80;0.40;;;;;;;23.08;39.31;100822.06;20719071;28;20120;-72
2023/04/02 09:58:30;;;;;;;0.60;0.60;;;;;;;22.88;39.55;100799.97;20739466;28;20042;-73
2023/04/02 10:08:32;;;;;;;0.60;0.40;;;;;;;22.97;39.51;100834.50;20747966;28;20061;-73
2023/04/02 10:18:36;;;;;;;0.52;0.45;;;;;;;22.98;38.97;100872.41;20749224;28;20038;-73
2023/04/02 10:28:37;;;;;;;0.68;0.52;;;;;;;22.95;38.79;100912.91;20739816;28;20095;-73
2023/04/02 10:38:41;;;;;;;1.77;0.70;;;;;;;22.94;38.84;100941.09;20745207;28;20366;-73
2023/04/02 10:49:13;;;;;;;0.50;0.50;;;;;;;22.87;39.11;100974.09;20757119;28;20049;-72
2023/04/02 10:59:25;;;;;;;0.85;0.40;;;;;;;22.85;38.79;100996.69;20742174;28;20100;-72
2023/04/02 11:09:31;;;;;;;0.38;0.38;;;;;;;22.87;38.73;101041.06;20742534;28;20042;-74
2023/04/02 11:19:36;;;;;;;0.40;0.40;;;;;;;22.74;38.81;101048.94;20745884;28;20046;-73
2023/04/02 11:29:53;;;;;;;0.73;0.40;;;;;;;22.82;38.30;101087.41;20717891;28;20401;-73
2023/04/02 11:39:57;;;;;;;1.02;0.63;;;;;;;22.81;38.48;101127.56;20717525;28;20038;-74
2023/04/02 11:50:00;;;;;;;1.38;0.90;;;;;;;22.78;38.34;101136.53;20740640;28;20033;-72
2023/04/02 12:00:33;;;;;;;3.22;1.10;;;;;;;22.70;38.24;101173.41;20762912;28;20030;-71
2023/04/02 12:11:03;;;;;;;1.00;0.90;;;;;;;22.62;38.51;101171.19;20750626;28;20108;-72
2023/04/02 12:21:04;;;;;;;9.07;1.38;;;;;;;22.62;38.76;101162.00;20717269;28;20050;-79
2023/04/02 12:31:08;;;;;;;2.45;0.90;;;;;;;22.76;38.33;101197.34;20750202;28;20427;-77
2023/04/02 12:41:34;;;;;;;1.65;1.00;;;;;;;22.68;37.41;101223.06;20755004;28;20046;-72
2023/04/02 12:51:36;;;;;;;2.05;1.10;;;;;;;22.67;36.94;101240.06;20759774;28;20448;-71
2023/04/02 13:01:55;;;;;;;1.90;1.20;;;;;;;22.62;36.82;101268.00;20750073;28;20064;-73
2023/04/02 13:11:57;;;;;;;1.38;0.90;;;;;;;22.63;37.44;101267.69;20748584;28;20045;-74
2023/04/02 13:22:10;;;;;;;2.45;1.30;;;;;;;22.60;36.82;101279.44;20755819;28;20041;-72
2023/04/02 13:32:12;;;;;;;3.42;1.17;;;;;;;22.55;37.29;101310.16;20752207;28;20050;-77
2023/04/02 13:42:14;;;;;;;28.98;2.55;;;;;;;22.71;37.59;101317.34;20732031;28;21024;-75
2023/04/02 13:52:16;;;;;;;13.50;1.80;;;;;;;22.64;36.61;101350.28;20749774;28;20492;-72
2023/04/02 14:02:23;;;;;;;10.55;1.42;;;;;;;22.25;35.90;101303.50;20753505;28;20496;-78
2023/04/02 14:12:47;;;;;;;6.88;1.58;;;;;;;22.56;36.54;101389.91;20748013;28;20397;-75
2023/04/02 14:23:03;;;;;;;6.43;1.10;;;;;;;22.53;36.86;101421.97;20739266;28;20034;-81
2023/04/02 14:33:37;;;;;;;3.15;1.00;;;;;;;22.44;37.93;101420.88;20745521;28;20107;-80
2023/04/02 14:43:53;;;;;;;2.20;1.15;;;;;;;22.47;37.62;101411.94;20757428;28;20045;-80
2023/04/02 14:54:01;;;;;;;11.95;1.83;;;;;;;22.52;37.60;101433.41;20738645;28;20029;-82
2023/04/02 15:04:19;;;;;;;2.95;1.27;;;;;;;22.26;38.02;101433.41;20732892;28;20045;-76
2023/04/02 15:14:27;;;;;;;7.47;1.35;;;;;;;22.38;38.25;101465.78;20747826;28;20077;-79
2023/04/02 15:24:34;;;;;;;16.30;1.65;;;;;;;22.43;38.11;101490.88;20741566;28;20371;-76
2023/04/02 15:34:43;;;;;;;5.63;1.52;;;;;;;22.47;38.04;101470.50;20745605;28;20182;-81
2023/04/02 15:45:04;;;;;;;;;;;;;;;22.47;37.55;101489.19;20731641;28;20104;-77
2023/04/02 15:55:36;;;;;;;7.47;1.58;;;;;;;22.41;37.85;101513.47;20738150;28;19918;-80
2023/04/02 16:06:16;;;;;;;5.90;1.30;;;;;;;22.42;37.63;101514.28;20741690;28;20045;-83
2023/04/02 16:16:28;;;;;;;5.03;1.30;;;;;;;22.35;37.62;101506.19;20660847;28;20100;-82
2023/04/02 16:26:50;;;;;;;5.45;1.40;;;;;;;22.43;37.92;101525.16;20744464;28;20042;-79
2023/04/02 16:37:37;;;;;;;6.30;1.50;;;;;;;22.35;37.68;101517.34;20746016;28;20053;-79
2023/04/02 16:47:48;;;;;;;9.57;1.60;;;;;;;22.36;37.62;101513.47;20742393;28;20116;-81
2023/04/02 16:57:50;;;;;;;3.90;1.40;;;;;;;22.39;37.54;101507.31;20764560;28;20034;-77
2023/04/02 17:08:17;;;;;;;5.63;1.50;;;;;;;22.35;37.98;101505.34;20762580;28;20050;-78
2023/04/02 17:18:23;;;;;;;5.40;1.20;;;;;;;22.47;37.57;101508.72;20753233;28;20054;-78
2023/04/02 17:28:35;;;;;;;9.00;1.45;;;;;;;22.37;37.58;101512.34;20756197;28;20092;-82
2023/04/02 17:38:46;;;;;;;10.85;1.40;;;;;;;22.45;37.46;101530.47;20735743;28;20065;-76
2023/04/02 17:49:12;;;;;;;7.18;1.63;;;;;;;22.20;38.14;101514.53;20745107;28;20588;-75
2023/04/02 17:59:39;;;;;;;4.45;1.40;;;;;;;22.35;38.22;101517.34;20685719;28;20038;-73
2023/04/02 18:09:51;;;;;;;3.95;1.40;;;;;;;22.39;38.11;101542.72;20754205;28;20042;-73
2023/04/02 18:20:31;;;;;;;7.03;1.65;;;;;;;22.32;38.36;101518.75;20754362;28;20060;-80
2023/04/02 18:31:03;;;;;;;4.67;1.17;;;;;;;22.40;38.13;101533.25;20717337;28;20923;-75
2023/04/02 18:41:35;;;;;;;5.93;1.17;;;;;;;22.36;38.06;101512.59;20740067;28;20042;-75
2023/04/02 18:51:39;;;;;;;5.47;1.00;;;;;;;22.43;37.88;101493.66;20751659;28;20041;-80
2023/04/02 19:01:45;;;;;;;4.00;1.10;;;;;;;22.61;37.10;101529.38;20743925;28;20029;-78
2023/04/02 19:11:47;;;;;;;3.97;1.17;;;;;;;22.62;37.27;101528.25;20704660;28;20072;-77
2023/04/02 19:22:11;;;;;;;2.15;0.88;;;;;;;22.55;37.46;101516.53;20748030;28;20033;-76
2023/04/02 19:32:30;;;;;;;4.65;1.20;;;;;;;22.65;37.52;101522.13;20750367;28;20500;-77
2023/04/02 19:42:51;;;;;;;3.05;0.98;;;;;;;22.63;37.37;101507.59;20742716;28;20044;-75
2023/04/02 19:52:56;;;;;;;5.97;1.17;;;;;;;22.76;37.04;101509.00;20746482;28;20488;-77
2023/04/02 20:02:57;;;;;;;5.90;1.33;;;;;;;22.75;37.27;101510.94;20741543;28;20547;-79
2023/04/02 20:12:59;;;;;;;6.22;0.98;;;;;;;22.82;37.08;101508.72;20752559;28;20046;-77
2023/04/02 20:23:01;;;;;;;2.55;0.93;;;;;;;22.72;37.06;101472.44;20743916;28;20038;-73
2023/04/02 20:33:02;;;;;;;2.20;0.95;;;;;;;22.88;36.23;101503.13;20733182;28;20054;-76
2023/04/02 20:43:07;;;;;;;12.48;1.30;;;;;;;22.70;36.47;101463.53;20761188;28;20046;-73
2023/04/02 20:53:09;;;;;;;9.35;1.20;;;;;;;22.72;36.25;101466.84;20760955;28;20050;-73
2023/04/02 21:03:11;;;;;;;15.52;2.15;;;;;;;22.81;36.07;101475.50;20736414;28;20026;-74
2023/04/02 21:13:15;;;;;;;3.78;1.02;;;;;;;22.87;35.76;101485.56;20755993;28;20153;-74
2023/04/02 21:23:16;;;;;;;3.97;1.17;;;;;;;22.86;35.39;101491.41;20756306;28;20077;-74
2023/04/02 21:33:17;;;;;;;3.00;1.15;;;;;;;22.76;35.08;101484.72;20755011;28;20081;-74
2023/04/02 21:43:19;;;;;;;3.33;0.90;;;;;;;22.82;34.79;101521.84;20750354;28;20237;-74
2023/04/02 21:53:21;;;;;;;5.35;2.05;;;;;;;22.77;35.38;101531.06;20744605;28;20455;-73
2023/04/02 22:03:25;;;;;;;2.00;1.08;;;;;;;22.78;34.93;101552.25;20751827;28;20045;-72
2023/04/02 22:13:30;;;;;;;2.17;0.90;;;;;;;22.71;34.44;101554.47;20733184;28;20038;-74
2023/04/02 22:23:32;;;;;;;2.60;0.90;;;;;;;22.67;35.25;101558.94;20751264;28;20563;-74
2023/04/02 22:33:35;;;;;;;2.47;1.05;;;;;;;22.99;35.51;101577.38;20749764;28;20168;-73
2023/04/02 22:43:37;;;;;;;3.72;1.45;;;;;;;23.11;35.44;101583.53;20750100;28;20060;-73
2023/04/02 22:53:39;;;;;;;2.92;1.08;;;;;;;23.12;35.67;101582.41;20750990;28;20559;-73
2023/04/02 23:03:40;;;;;;;6.40;2.83;;;;;;;23.15;35.84;101590.22;20750112;28;20056;-70
2023/04/02 23:13:43;;;;;;;22.20;2.30;;;;;;;22.68;36.63;101577.38;20739800;28;20046;-72
2023/04/02 23:23:45;;;;;;;9.25;2.50;;;;;;;22.56;36.98;101601.88;20798853;28;20558;-73
2023/04/02 23:33:46;;;;;;;6.38;2.92;;;;;;;22.68;36.96;101624.78;20757351;28;20050;-74
2023/04/02 23:43:50;;;;;;;8.52;2.72;;;;;;;22.66;36.95;101640.13;20738819;28;20107;-72
2023/04/02 23:53:54;;;;;;;10.13;3.50;;;;;;;22.65;36.84;101653.22;20748065;28;20046;-72
